Date,TemperatureHighF,TemperatureAvgF,TemperatureLowF,DewpointHighF,DewpointAvgF,DewpointLowF,HumidityHigh,HumidityAvg,HumidityLow,PressureMaxIn,PressureMinIn,WindSpeedMaxMPH,WindSpeedAvgMPH,GustSpeedMaxMPH,PrecipitationSumIn
2013-1-1,31.0,18.0,5.0,28.0,11.1,0.0,93,74,58,29.90,29.62,11,2,33,0.00
2013-1-2,15.0,5.0,-10.0,12.0,0.3,-15.0,90,81,68,30.18,29.81,11,1,19,0.00
2013-1-3,11.0,-4.1,-18.0,1.0,-9.7,-22.0,86,77,57,30.19,29.88,3,0,6,0.00
2013-1-4,33.0,20.2,1.0,27.0,15.4,-2.0,94,82,65,29.88,29.69,15,3,26,0.00
2013-1-5,32.0,22.9,7.0,27.0,15.3,4.0,88,73,57,30.20,29.73,12,3,28,0.00
2013-1-6,28.0,19.5,7.0,27.0,17.2,4.0,95,91,88,30.17,29.85,1,0,4,0.00
2013-1-7,31.0,18.0,3.0,30.0,13.5,0.0,95,83,64,30.32,29.90,5,1,9,0.01
2013-1-8,41.0,24.1,4.0,25.0,17.7,1.0,95,78,52,30.34,30.13,7,1,16,0.01
2013-1-9,43.0,23.2,7.0,33.0,18.4,4.0,91,83,62,30.35,29.85,11,2,25,0.14
2013-1-10,40.0,34.0,24.0,31.0,25.4,20.0,86,71,62,30.53,29.95,15,5,33,0.01
2013-1-11,34.0,26.8,17.0,32.0,23.4,15.0,93,87,66,30.53,30.09,5,0,10,0.04
2013-1-12,46.0,35.1,32.0,41.0,33.4,30.0,96,93,79,30.12,30.04,3,0,5,0.01
2013-1-13,51.0,35.7,32.0,49.0,34.2,31.0,98,95,80,30.11,29.86,7,0,14,0.00
2013-1-14,49.0,38.6,32.0,46.0,31.8,24.0,97,78,49,30.25,29.78,10,2,23,0.00
2013-1-15,33.0,29.8,25.0,25.0,21.0,19.0,80,70,59,30.30,30.21,5,1,9,0.00
2013-1-16,30.0,26.6,22.0,27.0,23.3,20.0,94,88,80,30.21,29.73,2,0,7,0.00
2013-1-17,33.0,20.5,7.0,29.0,13.6,-3.0,95,75,47,30.12,29.73,9,1,16,0.00
2013-1-18,18.0,5.9,-7.0,4.0,-4.6,-12.0,84,63,40,30.29,30.10,7,1,21,0.00
2013-1-19,40.0,28.9,10.0,29.0,21.3,6.0,92,74,53,30.18,29.70,9,2,16,0.00
2013-1-20,46.0,33.9,16.0,32.0,21.3,2.0,85,60,47,29.90,29.38,15,7,35,0.01
2013-1-21,21.0,12.3,0.0,10.0,3.4,-4.0,86,68,44,30.00,29.77,7,1,15,0.00
2013-1-22,17.0,8.6,-1.0,7.0,0.9,-10.0,87,72,52,30.01,29.74,9,2,20,0.00
2013-1-23,2.0,-5.2,-15.0,-6.0,-14.4,-20.0,78,65,43,30.11,30.00,7,2,15,0.00
2013-1-24,11.0,-3.7,-17.0,-6.0,-13.8,-22.0,92,64,38,30.27,30.05,11,2,25,0.00
2013-1-25,15.0,4.3,-7.0,1.0,-5.7,-12.0,80,64,45,30.30,30.04,7,1,10,0.00
2013-1-26,14.0,7.7,-2.0,6.0,-1.5,-7.0,84,67,42,30.22,30.03,10,2,18,0.00
2013-1-27,20.0,9.2,0.0,6.0,-1.9,-5.0,84,63,34,30.45,30.22,9,2,16,0.00
2013-1-28,18.0,9.2,-2.0,16.0,5.2,-6.0,91,84,66,30.43,29.98,3,0,6,0.00
2013-1-29,31.0,24.0,16.0,29.0,21.5,13.0,94,90,84,30.15,29.99,4,0,7,0.05
2013-1-30,45.0,36.2,30.0,44.0,35.0,28.0,97,96,94,29.99,29.28,5,1,11,0.05
2013-1-31,42.0,31.9,23.0,40.0,21.1,8.0,97,65,50,29.47,28.94,17,7,34,0.13